createdAt,value
2019-03-21T00:02:02.024Z,10.00
2019-03-21T00:04:30.256Z,10.23
2019-03-21T00:06:58.590Z,10.60
2019-03-21T00:09:26.928Z,10.15
2019-03-21T00:12:00.012Z,10.48
2019-03-21T00:14:43.465Z,11.28
2019-03-21T00:19:46.922Z,10.32
2019-03-21T00:22:15.429Z,10.55
2019-03-21T00:24:43.691Z,11.05
2019-03-21T00:27:11.940Z,9.75
2019-03-21T00:29:40.188Z,10.35
2019-03-21T00:32:08.481Z,10.48
2019-03-21T00:34:36.724Z,9.28
2019-03-21T00:37:04.970Z,10.18
2019-03-21T00:39:33.296Z,9.93
2019-03-21T00:42:01.547Z,9.03
2019-03-21T00:44:29.798Z,9.33
2019-03-21T00:46:58.052Z,8.88
2019-03-21T00:49:26.301Z,9.48
2019-03-21T00:51:54.710Z,9.28
2019-03-21T00:54:22.984Z,9.70
2019-03-21T00:56:51.312Z,9.70
2019-03-21T00:59:19.604Z,9.65
2019-03-21T01:01:47.878Z,10.08
2019-03-21T01:04:16.130Z,9.73
2019-03-21T01:06:44.406Z,9.20
2019-03-21T01:09:14.699Z,9.48
2019-03-21T01:11:42.967Z,8.93
2019-03-21T01:14:11.244Z,9.13
2019-03-21T01:16:39.500Z,9.30
2019-03-21T01:19:07.743Z,9.30
2019-03-21T01:21:35.988Z,9.35
2019-03-21T01:24:04.261Z,9.93
2019-03-21T01:26:32.491Z,9.88
2019-03-21T01:29:00.741Z,9.13
2019-03-21T01:31:29.008Z,9.28
2019-03-21T01:33:57.354Z,9.55
2019-03-21T01:36:25.603Z,9.85
2019-03-21T01:38:53.875Z,8.90
2019-03-21T01:41:22.182Z,8.65
2019-03-21T01:43:50.469Z,9.13
2019-03-21T01:46:21.681Z,8.93
2019-03-21T01:48:49.937Z,8.38
2019-03-21T01:51:18.224Z,10.50
2019-03-21T01:53:46.483Z,8.30
2019-03-21T01:56:14.727Z,7.92
2019-03-21T01:58:42.999Z,8.00
2019-03-21T02:01:11.258Z,7.25
2019-03-21T02:03:39.536Z,7.67
2019-03-21T02:06:07.781Z,7.78
2019-03-21T02:08:36.039Z,7.90
2019-03-21T02:11:04.307Z,6.90
2019-03-21T02:13:32.587Z,7.42
2019-03-21T02:16:00.846Z,7.67
2019-03-21T02:18:29.203Z,7.25
2019-03-21T02:20:57.447Z,7.40
2019-03-21T02:23:26.059Z,7.58
2019-03-21T02:25:54.397Z,6.95
2019-03-21T02:28:23.028Z,6.83
2019-03-21T02:30:52.954Z,7.00
2019-03-21T02:33:35.867Z,6.87
2019-03-21T02:36:06.866Z,6.92
2019-03-21T02:38:35.112Z,6.67
2019-03-21T02:41:09.468Z,6.67
2019-03-21T02:43:37.914Z,7.25
2019-03-21T02:46:06.265Z,7.03
2019-03-21T02:48:34.535Z,7.33
2019-03-21T02:51:02.770Z,6.67
2019-03-21T02:53:31.032Z,6.58
2019-03-21T02:55:59.290Z,6.70
2019-03-21T02:58:27.652Z,7.20
2019-03-21T03:00:55.886Z,7.10
2019-03-21T03:03:24.150Z,7.05
2019-03-21T03:05:52.423Z,7.28
2019-03-21T03:08:20.892Z,7.62
2019-03-21T03:10:52.357Z,7.25
2019-03-21T03:13:20.601Z,6.87
2019-03-21T03:15:48.843Z,7.20
2019-03-21T03:18:18.883Z,7.15
2019-03-21T03:20:47.169Z,7.30
2019-03-21T03:23:15.419Z,7.30
2019-03-21T03:25:43.741Z,6.87
2019-03-21T03:28:18.159Z,7.08
2019-03-21T03:30:46.391Z,6.85
2019-03-21T03:33:14.671Z,6.95
2019-03-21T03:35:42.932Z,7.25
2019-03-21T03:38:11.168Z,6.60
2019-03-21T03:40:48.478Z,7.55
2019-03-21T03:43:16.738Z,7.33
2019-03-21T03:45:45.154Z,6.95
2019-03-21T03:48:13.445Z,6.55
2019-03-21T03:50:41.738Z,7.20
2019-03-21T03:53:10.023Z,7.00
2019-03-21T03:55:38.342Z,7.00
2019-03-21T03:58:15.681Z,8.03
2019-03-21T04:00:43.929Z,7.25
2019-03-21T04:03:12.193Z,7.87
2019-03-21T04:05:40.199Z,6.97
2019-03-21T04:08:08.470Z,6.80
2019-03-21T04:10:48.243Z,7.05
2019-03-21T04:13:16.562Z,7.42
2019-03-21T04:15:52.405Z,6.83
2019-03-21T04:18:14.945Z,7.20
2019-03-21T04:20:48.963Z,6.83
2019-03-21T04:23:18.282Z,6.90
2019-03-21T04:25:58.516Z,7.50
2019-03-21T04:28:26.801Z,8.00
2019-03-21T04:30:55.079Z,7.58
2019-03-21T04:33:23.233Z,6.70
2019-03-21T04:35:51.562Z,7.35
2019-03-21T04:38:19.867Z,6.97
2019-03-21T04:40:48.113Z,7.20
2019-03-21T04:43:16.403Z,8.18
2019-03-21T04:45:44.633Z,7.83
2019-03-21T04:48:12.893Z,8.53
2019-03-21T04:50:42.100Z,7.90
2019-03-21T04:53:10.408Z,8.08
2019-03-21T04:55:38.733Z,7.50
2019-03-21T04:58:06.992Z,8.05
2019-03-21T05:00:42.989Z,8.73
2019-03-21T05:03:13.961Z,8.10
2019-03-21T05:05:42.303Z,7.85
2019-03-21T05:08:11.075Z,8.43
2019-03-21T05:10:39.373Z,8.00
2019-03-21T05:13:07.420Z,7.58
2019-03-21T05:15:40.732Z,8.40
2019-03-21T05:18:12.507Z,7.72
2019-03-21T05:20:40.602Z,8.33
2019-03-21T05:23:08.859Z,8.53
2019-03-21T05:25:36.885Z,8.45
2019-03-21T05:28:05.138Z,8.10
2019-03-21T05:30:45.908Z,8.30
2019-03-21T05:33:14.207Z,9.03
2019-03-21T05:35:42.442Z,9.65
2019-03-21T05:38:11.482Z,8.68
2019-03-21T05:40:42.464Z,8.78
2019-03-21T05:43:12.202Z,9.28
2019-03-21T05:48:27.941Z,9.10
2019-03-21T05:50:56.196Z,9.30
2019-03-21T05:53:24.470Z,9.50
2019-03-21T05:55:52.774Z,8.80
2019-03-21T05:58:21.427Z,8.68
2019-03-21T06:00:58.929Z,9.03
2019-03-21T06:03:30.853Z,9.33
2019-03-21T06:06:05.141Z,8.98
2019-03-21T06:08:36.510Z,9.20
2019-03-21T06:11:04.526Z,8.70
2019-03-21T06:13:32.784Z,8.83
2019-03-21T06:16:05.945Z,8.50
2019-03-21T06:21:37.230Z,9.03
2019-03-21T06:24:23.601Z,8.45
2019-03-21T06:26:56.008Z,8.28
2019-03-21T06:29:24.010Z,8.10
2019-03-21T06:31:52.091Z,8.50
2019-03-21T06:34:20.157Z,10.13
2019-03-21T06:36:48.164Z,9.35
2019-03-21T06:39:16.199Z,8.83
2019-03-21T06:41:44.301Z,8.65
2019-03-21T06:44:12.397Z,9.38
2019-03-21T06:46:48.906Z,8.23
2019-03-21T06:49:10.710Z,8.25
2019-03-21T06:51:39.017Z,7.55
2019-03-21T06:54:07.364Z,8.93
2019-03-21T06:56:35.601Z,11.08
2019-03-21T06:59:03.852Z,8.43
2019-03-21T07:01:32.107Z,7.87
2019-03-21T07:04:07.040Z,7.47
2019-03-21T07:06:30.353Z,7.40
2019-03-21T07:08:58.749Z,8.00
2019-03-21T07:11:27.019Z,7.25
2019-03-21T07:13:55.346Z,7.30
2019-03-21T07:16:23.625Z,6.95
2019-03-21T07:18:51.938Z,7.17
2019-03-21T07:21:20.199Z,7.25
2019-03-21T07:23:48.455Z,7.22
2019-03-21T07:26:16.683Z,6.95
2019-03-21T07:28:44.966Z,7.20
2019-03-21T07:31:13.206Z,6.92
2019-03-21T07:33:41.493Z,7.05
2019-03-21T07:36:09.723Z,7.17
2019-03-21T07:38:37.968Z,7.37
2019-03-21T07:41:06.400Z,6.87
2019-03-21T07:43:34.638Z,7.03
2019-03-21T07:46:02.882Z,6.37
2019-03-21T07:48:31.130Z,5.62
2019-03-21T07:50:59.403Z,6.58
2019-03-21T07:53:27.696Z,5.85
2019-03-21T07:55:56.088Z,5.35
2019-03-21T07:58:24.386Z,5.50
2019-03-21T08:00:52.645Z,5.40
2019-03-21T08:03:20.914Z,5.12
2019-03-21T08:05:49.186Z,5.03
2019-03-21T08:08:17.425Z,5.28
2019-03-21T08:10:45.706Z,5.05
2019-03-21T08:13:13.957Z,4.90
2019-03-21T08:15:42.197Z,4.70
2019-03-21T08:18:10.465Z,4.40
2019-03-21T08:20:38.690Z,4.45
2019-03-21T08:23:06.956Z,4.17
2019-03-21T08:25:35.177Z,3.85
2019-03-21T08:28:03.544Z,4.08
2019-03-21T08:30:33.618Z,3.87
2019-03-21T08:33:03.244Z,3.77
2019-03-21T08:35:31.696Z,4.00
2019-03-21T08:37:59.961Z,3.80
2019-03-21T08:40:28.260Z,3.60
2019-03-21T08:42:56.496Z,3.72
2019-03-21T08:45:24.760Z,3.47
2019-03-21T08:47:53.078Z,3.60
2019-03-21T08:50:21.338Z,3.83
2019-03-21T08:52:49.590Z,3.70
2019-03-21T08:55:17.862Z,4.00
2019-03-21T08:57:46.119Z,3.77
2019-03-21T09:00:14.992Z,3.80
2019-03-21T09:02:43.266Z,4.10
2019-03-21T09:05:11.560Z,4.00
2019-03-21T09:07:39.906Z,4.00
2019-03-21T09:10:10.019Z,4.08
2019-03-21T09:12:38.298Z,3.85
2019-03-21T09:15:08.928Z,4.85
2019-03-21T09:17:37.266Z,4.15
2019-03-21T09:20:07.290Z,4.40
2019-03-21T09:22:35.623Z,4.28
2019-03-21T09:25:08.348Z,4.17
2019-03-21T09:27:36.657Z,4.75
2019-03-21T09:30:08.174Z,4.30
2019-03-21T09:32:36.543Z,3.85
2019-03-21T09:35:06.638Z,4.33
2019-03-21T09:37:36.498Z,4.60
2019-03-21T09:40:07.257Z,4.80
2019-03-21T09:42:35.765Z,4.47
2019-03-21T09:45:09.484Z,4.30
2019-03-21T09:47:37.732Z,4.50
2019-03-21T09:50:07.115Z,4.37
2019-03-21T09:52:38.220Z,4.60
2019-03-21T09:55:07.029Z,4.20
2019-03-21T09:57:35.348Z,4.53
2019-03-21T10:00:05.413Z,4.72
2019-03-21T10:02:33.782Z,4.70
2019-03-21T10:05:02.055Z,4.17
2019-03-21T10:07:30.384Z,4.55
2019-03-21T10:09:58.675Z,4.67
2019-03-21T10:12:26.915Z,4.62
2019-03-21T10:14:55.150Z,4.92
2019-03-21T10:17:23.503Z,4.60
2019-03-21T10:19:51.868Z,4.35
2019-03-21T10:22:20.154Z,4.12
2019-03-21T10:24:48.475Z,4.37
2019-03-21T10:27:16.760Z,4.70
2019-03-21T10:29:45.026Z,4.47
2019-03-21T10:32:14.427Z,4.17
2019-03-21T10:34:42.990Z,3.72
2019-03-21T10:37:11.252Z,3.95
2019-03-21T10:39:39.517Z,4.03
2019-03-21T10:42:08.134Z,5.17
2019-03-21T10:44:36.424Z,4.40
2019-03-21T10:47:04.853Z,3.90
2019-03-21T10:49:33.137Z,3.72
2019-03-21T10:52:01.463Z,3.67
2019-03-21T10:54:29.902Z,3.70
2019-03-21T10:56:58.167Z,3.92
2019-03-21T10:59:26.482Z,3.80
2019-03-21T11:01:54.821Z,4.25
2019-03-21T11:04:23.206Z,3.77
2019-03-21T11:07:01.463Z,4.22
2019-03-21T11:09:30.258Z,4.12
2019-03-21T11:11:59.314Z,3.70
2019-03-21T11:14:28.295Z,4.00
2019-03-21T11:16:56.836Z,4.28
2019-03-21T11:19:25.186Z,3.90
2019-03-21T11:21:53.709Z,4.35
2019-03-21T11:24:22.006Z,4.10
2019-03-21T11:26:50.461Z,4.17
2019-03-21T11:29:18.865Z,4.72
2019-03-21T11:31:47.173Z,4.00
2019-03-21T11:34:15.467Z,4.55
2019-03-21T11:36:43.718Z,4.70
2019-03-21T11:39:11.968Z,4.45
2019-03-21T11:41:40.384Z,4.53
2019-03-21T11:44:08.725Z,4.53
2019-03-21T11:46:37.022Z,4.87
2019-03-21T11:49:05.454Z,4.70
2019-03-21T11:51:33.829Z,4.95
2019-03-21T11:54:02.220Z,5.28
2019-03-21T11:56:30.534Z,4.60
2019-03-21T11:58:58.876Z,4.60
2019-03-21T12:01:27.274Z,4.95
2019-03-21T12:03:55.643Z,5.28
2019-03-21T12:06:23.947Z,4.60
2019-03-21T12:08:52.202Z,4.70
2019-03-21T12:11:21.373Z,4.25
2019-03-21T12:13:50.296Z,5.37
2019-03-21T12:16:18.651Z,47.67
2019-03-21T12:18:46.987Z,6.47
2019-03-21T12:21:15.252Z,6.30
2019-03-21T12:23:43.594Z,5.22
2019-03-21T12:26:11.865Z,5.50
2019-03-21T12:28:40.260Z,4.90
2019-03-21T12:31:08.638Z,5.10
2019-03-21T12:33:36.908Z,5.50
2019-03-21T12:36:05.248Z,5.42
2019-03-21T12:38:33.515Z,5.15
2019-03-21T12:41:01.789Z,5.22
2019-03-21T12:43:30.164Z,5.40
2019-03-21T12:45:58.488Z,5.30
2019-03-21T12:48:26.880Z,5.22
2019-03-21T12:50:55.242Z,5.33
2019-03-21T12:53:23.518Z,5.45
2019-03-21T12:55:51.871Z,5.08
2019-03-21T12:58:20.143Z,5.72
2019-03-21T13:00:48.593Z,5.40
2019-03-21T13:03:16.888Z,5.83
2019-03-21T13:05:45.242Z,5.40
2019-03-21T13:08:13.508Z,5.12
2019-03-21T13:10:41.783Z,5.28
2019-03-21T13:13:10.033Z,18.17
2019-03-21T13:15:38.339Z,7.33
2019-03-21T13:18:06.574Z,6.03
2019-03-21T13:20:34.899Z,5.60
2019-03-21T13:23:03.152Z,5.50
2019-03-21T13:25:31.405Z,5.10
2019-03-21T13:27:59.735Z,5.22
2019-03-21T13:30:28.002Z,5.50
2019-03-21T13:32:56.249Z,5.25
2019-03-21T13:35:32.770Z,5.47
2019-03-21T13:37:54.483Z,5.58
2019-03-21T13:40:25.222Z,5.08
2019-03-21T13:42:53.742Z,5.10
2019-03-21T13:45:22.084Z,5.17
2019-03-21T13:47:50.310Z,5.33
2019-03-21T13:50:18.571Z,5.05
2019-03-21T13:52:46.807Z,5.50
2019-03-21T13:55:15.067Z,5.05
2019-03-21T13:57:43.354Z,4.92
2019-03-21T14:00:21.633Z,5.30
2019-03-21T14:02:49.876Z,5.10
2019-03-21T14:05:18.108Z,5.47
2019-03-21T14:07:46.359Z,5.40
2019-03-21T14:10:14.631Z,7.80
2019-03-21T14:12:42.896Z,6.95
2019-03-21T14:15:16.394Z,6.17
2019-03-21T14:17:44.634Z,5.47
2019-03-21T14:20:14.117Z,5.55
2019-03-21T14:22:42.384Z,5.55
2019-03-21T14:25:10.627Z,5.55
2019-03-21T14:27:38.878Z,5.90
2019-03-21T14:30:09.852Z,5.85
2019-03-21T14:32:38.122Z,5.80
2019-03-21T14:35:07.208Z,5.90
2019-03-21T14:37:35.824Z,5.95
2019-03-21T14:40:06.180Z,6.45
2019-03-21T14:42:36.185Z,6.60
2019-03-21T14:45:06.839Z,6.40
2019-03-21T14:47:36.415Z,6.30
2019-03-21T14:50:15.213Z,6.00
2019-03-21T14:52:43.510Z,6.08
2019-03-21T14:55:16.873Z,5.90
2019-03-21T14:57:45.187Z,6.08
2019-03-21T15:00:19.941Z,6.70
2019-03-21T15:02:48.511Z,6.60
2019-03-21T15:05:16.790Z,6.20
2019-03-21T15:07:45.124Z,6.30
2019-03-21T15:10:15.959Z,6.28
2019-03-21T15:12:44.211Z,5.95
2019-03-21T15:15:14.105Z,6.22
2019-03-21T15:17:42.377Z,6.22
2019-03-21T15:20:13.357Z,5.75
2019-03-21T15:22:41.623Z,6.17
2019-03-21T15:25:11.497Z,6.45
2019-03-21T15:27:39.763Z,6.30
2019-03-21T15:30:11.432Z,5.87
2019-03-21T15:32:41.808Z,6.50
2019-03-21T15:35:11.041Z,6.28
2019-03-21T15:37:39.325Z,6.53
2019-03-21T15:40:09.713Z,6.85
2019-03-21T15:42:38.046Z,6.65
2019-03-21T15:45:22.108Z,6.20
2019-03-21T15:47:40.731Z,7.33
2019-03-21T15:50:11.860Z,8.48
2019-03-21T15:52:40.127Z,8.90
2019-03-21T15:55:08.426Z,6.70
2019-03-21T15:57:36.677Z,6.60
2019-03-21T16:00:08.082Z,6.80
2019-03-21T16:02:37.502Z,7.47
2019-03-21T16:05:05.944Z,6.37
2019-03-21T16:07:34.222Z,8.73
2019-03-21T16:10:02.475Z,6.70
2019-03-21T16:12:31.019Z,6.12
2019-03-21T16:14:59.317Z,6.05
2019-03-21T16:17:27.568Z,5.55
2019-03-21T16:19:55.831Z,6.05
2019-03-21T16:22:24.089Z,19.70
2019-03-21T16:24:52.646Z,7.50
2019-03-21T16:27:20.880Z,7.97
2019-03-21T16:29:49.254Z,6.97
2019-03-21T16:32:17.517Z,5.78
2019-03-21T16:34:47.978Z,6.10
2019-03-21T16:37:15.775Z,6.20
2019-03-21T16:39:44.076Z,11.25
2019-03-21T16:42:12.340Z,7.25
2019-03-21T16:44:40.577Z,6.83
2019-03-21T16:47:08.854Z,6.22
2019-03-21T16:49:37.107Z,6.83
2019-03-21T16:52:05.386Z,7.50
2019-03-21T16:54:33.635Z,6.37
2019-03-21T16:57:01.881Z,6.37
2019-03-21T16:59:30.246Z,6.60
2019-03-21T17:01:58.684Z,7.97
2019-03-21T17:04:26.953Z,7.70
2019-03-21T17:06:55.222Z,6.58
2019-03-21T17:09:23.580Z,6.50
2019-03-21T17:11:52.026Z,6.50
2019-03-21T17:14:20.382Z,6.40
2019-03-21T17:16:48.638Z,6.40
2019-03-21T17:19:17.494Z,6.28
2019-03-21T17:21:46.037Z,6.78
2019-03-21T17:24:14.284Z,6.92
2019-03-21T17:26:43.082Z,6.20
2019-03-21T17:29:11.444Z,7.20
2019-03-21T17:31:48.113Z,6.53
2019-03-21T17:34:16.389Z,7.10
2019-03-21T17:36:44.636Z,7.25
2019-03-21T17:39:12.939Z,7.20
2019-03-21T17:41:43.351Z,6.83
2019-03-21T17:44:11.464Z,7.47
2019-03-21T17:46:45.171Z,9.33
2019-03-21T17:49:15.103Z,7.30
2019-03-21T17:51:43.353Z,7.05
2019-03-21T17:54:11.619Z,8.75
2019-03-21T17:56:40.564Z,8.05
2019-03-21T17:59:08.961Z,7.85
2019-03-21T18:01:40.981Z,8.08
2019-03-21T18:04:09.272Z,7.22
2019-03-21T18:06:38.126Z,7.70
2019-03-21T18:09:07.779Z,7.58
2019-03-21T18:11:36.127Z,8.05
2019-03-21T18:14:04.568Z,8.55
2019-03-21T18:16:33.842Z,7.80
2019-03-21T18:19:11.092Z,8.00
2019-03-21T18:21:40.529Z,8.08
2019-03-21T18:24:08.955Z,8.85
2019-03-21T18:26:39.113Z,8.90
2019-03-21T18:29:07.407Z,8.70
2019-03-21T18:31:35.777Z,7.87
2019-03-21T18:34:04.205Z,8.00
2019-03-21T18:36:48.880Z,8.68
2019-03-21T18:39:17.497Z,8.73
2019-03-21T18:41:45.869Z,8.28
2019-03-21T18:44:20.701Z,8.15
2019-03-21T18:46:52.988Z,8.63
2019-03-21T18:49:23.333Z,8.43
2019-03-21T18:51:51.664Z,9.10
2019-03-21T18:54:19.970Z,8.98
2019-03-21T18:56:48.402Z,9.35
2019-03-21T18:59:16.928Z,9.10
2019-03-21T19:01:58.100Z,9.30
2019-03-21T19:04:19.092Z,9.20
2019-03-21T19:06:47.411Z,9.68
2019-03-21T19:12:21.788Z,9.10
2019-03-21T19:14:47.671Z,9.20
2019-03-21T19:17:16.192Z,9.45
2019-03-21T19:19:44.728Z,14.43
2019-03-21T19:22:12.983Z,14.58
2019-03-21T19:24:41.271Z,11.38
2019-03-21T19:27:09.552Z,10.08
2019-03-21T19:29:37.802Z,10.48
2019-03-21T19:32:06.088Z,10.60
2019-03-21T19:34:34.352Z,10.13
2019-03-21T19:37:02.587Z,9.88
2019-03-21T19:39:30.842Z,10.25
2019-03-21T19:41:59.099Z,10.15
2019-03-21T19:44:27.426Z,10.10
2019-03-21T19:46:56.062Z,9.13
2019-03-21T19:49:24.317Z,10.03
2019-03-21T19:51:52.563Z,10.10
2019-03-21T19:54:20.849Z,10.15
2019-03-21T19:56:49.126Z,10.18
2019-03-21T19:59:17.462Z,9.80
2019-03-21T20:01:45.732Z,10.53
2019-03-21T20:04:14.013Z,10.90
2019-03-21T20:06:42.379Z,10.95
2019-03-21T20:09:10.724Z,10.03
2019-03-21T20:11:38.986Z,10.40
2019-03-21T20:14:07.232Z,10.28
2019-03-21T20:16:44.229Z,19.87
2019-03-21T20:19:12.518Z,12.37
2019-03-21T20:21:47.939Z,10.32
2019-03-21T20:24:10.865Z,10.70
2019-03-21T20:26:39.137Z,10.80
2019-03-21T20:29:07.377Z,10.68
2019-03-21T20:31:35.655Z,11.05
2019-03-21T20:34:03.962Z,11.35
2019-03-21T20:36:32.229Z,10.48
2019-03-21T20:39:00.506Z,10.98
2019-03-21T20:41:28.762Z,10.55
2019-03-21T20:43:57.043Z,10.50
2019-03-21T20:46:25.313Z,10.45
2019-03-21T20:48:52.667Z,10.10
2019-03-21T20:51:20.938Z,12.53
2019-03-21T20:53:49.276Z,10.63
2019-03-21T20:56:17.529Z,11.00
2019-03-21T20:58:45.801Z,11.10
2019-03-21T21:01:14.192Z,11.30
2019-03-21T21:03:42.521Z,10.88
2019-03-21T21:06:10.805Z,11.35
2019-03-21T21:08:39.139Z,10.28
2019-03-21T21:11:07.616Z,10.50
2019-03-21T21:13:36.028Z,10.93
2019-03-21T21:16:04.402Z,11.25
2019-03-21T21:18:32.677Z,11.25
2019-03-21T21:21:00.954Z,11.20
2019-03-21T21:23:29.275Z,11.40
2019-03-21T21:26:05.548Z,11.00
2019-03-21T21:28:27.605Z,11.48
2019-03-21T21:30:55.891Z,10.90
2019-03-21T21:33:24.162Z,13.53
2019-03-21T21:35:52.414Z,13.13
2019-03-21T21:38:20.871Z,12.35
2019-03-21T21:40:49.207Z,11.48
2019-03-21T21:43:17.472Z,11.05
2019-03-21T21:45:45.710Z,11.88
2019-03-21T21:48:15.191Z,11.43
2019-03-21T21:50:43.495Z,12.85
2019-03-21T21:53:11.765Z,12.37
2019-03-21T21:55:40.132Z,12.80
2019-03-21T21:58:08.387Z,13.45
2019-03-21T22:00:36.651Z,13.03
2019-03-21T22:03:04.920Z,13.65
2019-03-21T22:05:33.156Z,12.55
2019-03-21T22:08:01.456Z,13.13
2019-03-21T22:10:29.795Z,11.97
2019-03-21T22:15:45.481Z,14.45
2019-03-21T22:21:32.438Z,14.65
2019-03-21T22:30:49.631Z,14.38
2019-03-21T22:36:55.661Z,14.60
2019-03-21T22:39:48.517Z,14.70
2019-03-21T22:42:25.437Z,13.43
2019-03-21T22:44:54.653Z,14.10
2019-03-21T22:47:22.875Z,14.30
2019-03-21T22:49:51.322Z,13.80
2019-03-21T22:52:19.611Z,13.40
2019-03-21T22:54:47.859Z,12.98
2019-03-21T22:57:16.139Z,14.43
2019-03-21T22:59:44.426Z,14.70
2019-03-21T23:02:12.695Z,14.03
2019-03-21T23:04:40.946Z,14.43
2019-03-21T23:07:09.203Z,13.65
2019-03-21T23:09:37.503Z,15.93
2019-03-21T23:12:05.751Z,15.23
2019-03-21T23:14:34.002Z,15.50
2019-03-21T23:17:02.300Z,16.48
2019-03-21T23:19:30.556Z,17.55
2019-03-21T23:21:58.870Z,16.55
2019-03-21T23:24:30.234Z,15.03
2019-03-21T23:26:58.528Z,14.50
2019-03-21T23:29:26.803Z,14.73
2019-03-21T23:31:55.156Z,14.95
2019-03-21T23:34:23.440Z,14.78
2019-03-21T23:36:51.793Z,15.28
2019-03-21T23:39:20.048Z,14.80
2019-03-21T23:41:48.302Z,14.03
2019-03-21T23:44:31.189Z,13.15
2019-03-21T23:46:59.486Z,12.23
2019-03-21T23:49:27.807Z,12.10
2019-03-21T23:52:24.040Z,11.60
2019-03-21T23:55:08.643Z,10.72
2019-03-21T23:57:47.845Z,11.53
